Lapseki, Turkey
Current Conditions -  °F | °C
As of 9:50 PM on Friday 28 Nov 2014 (Local Time) from LTBH Reporting Station
Broken Clouds Broken Clouds  
Wind Chill:   Ceiling: 10000
Heat Index:   Visibility: 6mi
Dew Point:   Wind: 2mph
Humidity: 87%   Direction: NA
Pressure: 30.24"   Gusts: NA
Location:  40.34°N, 26.69°E
Report Text: LTBH 281850Z VRB02KT 9999 SCT035 BKN100 08/06 Q1024
Loading
Personal Weather Stations






























Interactive Weather Map New forecast layout! Learn more

10-Day Weather Forecast

Advertisements
Track Severe Weather on mobile